sensor_id;sensor_type;location;lat;lon;timestamp;P1;durP1;ratioP1;P2;durP2;ratioP2
63874;SDS011;51595;24.180;-110.296;2023-08-31T00:02:08;2.40;;;1.75;;
63874;SDS011;51595;24.180;-110.296;2023-08-31T00:05:16;2.50;;;1.42;;
63874;SDS011;51595;24.180;-110.296;2023-08-31T00:11:09;11.07;;;1.80;;
63874;SDS011;51595;24.180;-110.296;2023-08-31T00:13:49;4.78;;;2.05;;
63874;SDS011;51595;24.180;-110.296;2023-08-31T00:16:25;2.92;;;1.77;;
63874;SDS011;51595;24.180;-110.296;2023-08-31T00:18:52;3.63;;;1.85;;
63874;SDS011;51595;24.180;-110.296;2023-08-31T00:21:28;2.05;;;1.50;;
63874;SDS011;51595;24.180;-110.296;2023-08-31T00:24:29;3.28;;;1.58;;
63874;SDS011;51595;24.180;-110.296;2023-08-31T00:26:58;6.70;;;2.13;;
63874;SDS011;51595;24.180;-110.296;2023-08-31T00:29:26;3.17;;;2.05;;
63874;SDS011;51595;24.180;-110.296;2023-08-31T00:34:41;8.10;;;2.67;;
63874;SDS011;51595;24.180;-110.296;2023-08-31T00:37:09;3.30;;;2.47;;
63874;SDS011;51595;24.180;-110.296;2023-08-31T00:39:36;3.25;;;2.20;;
63874;SDS011;51595;24.180;-110.296;2023-08-31T00:42:05;2.88;;;2.05;;
63874;SDS011;51595;24.180;-110.296;2023-08-31T00:44:42;3.38;;;1.80;;
63874;SDS011;51595;24.180;-110.296;2023-08-31T00:47:38;2.70;;;2.05;;
63874;SDS011;51595;24.180;-110.296;2023-08-31T00:50:10;5.38;;;1.85;;
63874;SDS011;51595;24.180;-110.296;2023-08-31T00:59:41;4.57;;;1.98;;
63874;SDS011;51595;24.180;-110.296;2023-08-31T01:02:41;4.30;;;1.75;;
63874;SDS011;51595;24.180;-110.296;2023-08-31T01:05:52;4.50;;;2.13;;
63874;SDS011;51595;24.180;-110.296;2023-08-31T01:09:02;5.00;;;1.98;;
63874;SDS011;51595;24.180;-110.296;2023-08-31T01:11:41;4.15;;;2.08;;
63874;SDS011;51595;24.180;-110.296;2023-08-31T01:15:10;6.30;;;1.83;;
63874;SDS011;51595;24.180;-110.296;2023-08-31T01:17:38;2.95;;;1.80;;
63874;SDS011;51595;24.180;-110.296;2023-08-31T01:20:10;5.07;;;2.10;;
63874;SDS011;51595;24.180;-110.296;2023-08-31T01:22:55;2.28;;;1.80;;
63874;SDS011;51595;24.180;-110.296;2023-08-31T01:25:35;2.88;;;2.00;;
63874;SDS011;51595;24.180;-110.296;2023-08-31T01:28:08;2.25;;;1.55;;
63874;SDS011;51595;24.180;-110.296;2023-08-31T01:30:35;3.40;;;1.88;;
63874;SDS011;51595;24.180;-110.296;2023-08-31T01:33:08;3.35;;;2.00;;
63874;SDS011;51595;24.180;-110.296;2023-08-31T01:35:42;2.58;;;1.88;;
63874;SDS011;51595;24.180;-110.296;2023-08-31T01:38:18;2.33;;;1.73;;
63874;SDS011;51595;24.180;-110.296;2023-08-31T01:40:54;4.47;;;1.60;;
63874;SDS011;51595;24.180;-110.296;2023-08-31T01:43:48;2.88;;;1.75;;
63874;SDS011;51595;24.180;-110.296;2023-08-31T01:46:22;3.03;;;1.67;;
63874;SDS011;51595;24.180;-110.296;2023-08-31T01:48:49;3.67;;;1.52;;
63874;SDS011;51595;24.180;-110.296;2023-08-31T01:51:16;2.00;;;1.75;;
63874;SDS011;51595;24.180;-110.296;2023-08-31T01:53:46;4.53;;;1.83;;
63874;SDS011;51595;24.180;-110.296;2023-08-31T01:59:17;4.28;;;2.15;;
63874;SDS011;51595;24.180;-110.296;2023-08-31T02:01:50;7.35;;;2.45;;
63874;SDS011;51595;24.180;-110.296;2023-08-31T02:04:31;6.05;;;2.55;;
63874;SDS011;51595;24.180;-110.296;2023-08-31T02:07:01;5.45;;;2.35;;
63874;SDS011;51595;24.180;-110.296;2023-08-31T02:09:28;2.40;;;2.00;;
63874;SDS011;51595;24.180;-110.296;2023-08-31T02:11:55;9.57;;;3.60;;
63874;SDS011;51595;24.180;-110.296;2023-08-31T02:17:26;11.02;;;3.80;;
63874;SDS011;51595;24.180;-110.296;2023-08-31T02:19:53;6.70;;;2.67;;
63874;SDS011;51595;24.180;-110.296;2023-08-31T02:22:25;5.63;;;2.55;;
63874;SDS011;51595;24.180;-110.296;2023-08-31T02:24:55;5.78;;;2.30;;
63874;SDS011;51595;24.180;-110.296;2023-08-31T02:27:22;5.35;;;2.33;;
63874;SDS011;51595;24.180;-110.296;2023-08-31T02:29:49;7.90;;;2.42;;
63874;SDS011;51595;24.180;-110.296;2023-08-31T02:32:15;4.68;;;1.77;;
63874;SDS011;51595;24.180;-110.296;2023-08-31T02:35:06;3.72;;;1.48;;
63874;SDS011;51595;24.180;-110.296;2023-08-31T02:38:19;4.78;;;1.42;;
63874;SDS011;51595;24.180;-110.296;2023-08-31T02:43:41;3.30;;;1.02;;
63874;SDS011;51595;24.180;-110.296;2023-08-31T02:46:08;3.05;;;1.23;;
63874;SDS011;51595;24.180;-110.296;2023-08-31T02:48:34;3.83;;;1.10;;
63874;SDS011;51595;24.180;-110.296;2023-08-31T02:51:33;3.67;;;1.40;;
63874;SDS011;51595;24.180;-110.296;2023-08-31T02:54:34;1.90;;;1.15;;
63874;SDS011;51595;24.180;-110.296;2023-08-31T02:57:03;1.60;;;1.23;;
63874;SDS011;51595;24.180;-110.296;2023-08-31T02:59:33;1.05;;;0.93;;
63874;SDS011;51595;24.180;-110.296;2023-08-31T03:02:03;6.50;;;1.33;;
63874;SDS011;51595;24.180;-110.296;2023-08-31T03:04:47;1.30;;;0.75;;
63874;SDS011;51595;24.180;-110.296;2023-08-31T03:07:25;3.33;;;1.20;;
63874;SDS011;51595;24.180;-110.296;2023-08-31T03:09:55;1.77;;;1.20;;
63874;SDS011;51595;24.180;-110.296;2023-08-31T03:12:25;1.90;;;1.38;;
63874;SDS011;51595;24.180;-110.296;2023-08-31T03:14:52;5.13;;;1.40;;
63874;SDS011;51595;24.180;-110.296;2023-08-31T03:17:21;2.47;;;1.25;;
63874;SDS011;51595;24.180;-110.296;2023-08-31T03:19:50;4.43;;;1.23;;
63874;SDS011;51595;24.180;-110.296;2023-08-31T03:22:20;2.47;;;1.17;;
63874;SDS011;51595;24.180;-110.296;2023-08-31T03:24:50;2.90;;;1.13;;
63874;SDS011;51595;24.180;-110.296;2023-08-31T03:27:26;1.80;;;1.30;;
63874;SDS011;51595;24.180;-110.296;2023-08-31T03:29:53;1.40;;;0.88;;
63874;SDS011;51595;24.180;-110.296;2023-08-31T03:32:25;1.98;;;1.25;;
63874;SDS011;51595;24.180;-110.296;2023-08-31T03:34:54;1.13;;;1.02;;
63874;SDS011;51595;24.180;-110.296;2023-08-31T03:37:21;5.20;;;1.23;;
63874;SDS011;51595;24.180;-110.296;2023-08-31T03:39:47;10.02;;;1.63;;
63874;SDS011;51595;24.180;-110.296;2023-08-31T03:42:14;3.38;;;1.60;;
63874;SDS011;51595;24.180;-110.296;2023-08-31T03:44:45;2.90;;;1.70;;
63874;SDS011;51595;24.180;-110.296;2023-08-31T03:47:12;3.13;;;1.65;;
63874;SDS011;51595;24.180;-110.296;2023-08-31T03:49:42;2.75;;;1.98;;
63874;SDS011;51595;24.180;-110.296;2023-08-31T03:52:09;3.50;;;1.98;;
63874;SDS011;51595;24.180;-110.296;2023-08-31T03:54:36;3.80;;;1.63;;
63874;SDS011;51595;24.180;-110.296;2023-08-31T03:57:03;2.25;;;1.25;;
63874;SDS011;51595;24.180;-110.296;2023-08-31T03:59:45;1.85;;;1.10;;
63874;SDS011;51595;24.180;-110.296;2023-08-31T04:02:13;3.60;;;1.58;;
63874;SDS011;51595;24.180;-110.296;2023-08-31T04:04:40;3.63;;;2.05;;
63874;SDS011;51595;24.180;-110.296;2023-08-31T04:07:10;1.90;;;1.42;;
63874;SDS011;51595;24.180;-110.296;2023-08-31T04:09:42;1.48;;;1.27;;
63874;SDS011;51595;24.180;-110.296;2023-08-31T04:12:15;3.13;;;1.67;;
63874;SDS011;51595;24.180;-110.296;2023-08-31T04:14:46;2.38;;;1.98;;
63874;SDS011;51595;24.180;-110.296;2023-08-31T04:17:12;2.38;;;1.48;;
63874;SDS011;51595;24.180;-110.296;2023-08-31T04:19:44;2.65;;;1.80;;
63874;SDS011;51595;24.180;-110.296;2023-08-31T04:22:15;4.38;;;2.10;;
63874;SDS011;51595;24.180;-110.296;2023-08-31T04:24:42;1.80;;;1.52;;
63874;SDS011;51595;24.180;-110.296;2023-08-31T04:27:09;2.28;;;2.00;;
63874;SDS011;51595;24.180;-110.296;2023-08-31T04:29:35;1.65;;;1.38;;
63874;SDS011;51595;24.180;-110.296;2023-08-31T04:32:04;2.40;;;1.48;;
63874;SDS011;51595;24.180;-110.296;2023-08-31T04:34:33;1.83;;;1.50;;
63874;SDS011;51595;24.180;-110.296;2023-08-31T04:37:01;1.95;;;1.60;;
63874;SDS011;51595;24.180;-110.296;2023-08-31T04:39:31;1.58;;;1.17;;
63874;SDS011;51595;24.180;-110.296;2023-08-31T04:41:58;2.75;;;1.60;;
63874;SDS011;51595;24.180;-110.296;2023-08-31T04:44:33;3.33;;;1.58;;
63874;SDS011;51595;24.180;-110.296;2023-08-31T04:47:02;3.65;;;1.48;;
63874;SDS011;51595;24.180;-110.296;2023-08-31T04:49:29;2.22;;;1.67;;
63874;SDS011;51595;24.180;-110.296;2023-08-31T04:51:59;2.15;;;1.75;;
63874;SDS011;51595;24.180;-110.296;2023-08-31T04:54:35;2.53;;;1.85;;
63874;SDS011;51595;24.180;-110.296;2023-08-31T04:57:01;6.35;;;1.83;;
63874;SDS011;51595;24.180;-110.296;2023-08-31T04:59:28;2.60;;;1.73;;
63874;SDS011;51595;24.180;-110.296;2023-08-31T05:01:55;2.17;;;1.67;;
63874;SDS011;51595;24.180;-110.296;2023-08-31T05:04:22;2.22;;;1.75;;
63874;SDS011;51595;24.180;-110.296;2023-08-31T05:06:49;1.65;;;1.55;;
63874;SDS011;51595;24.180;-110.296;2023-08-31T05:09:16;1.25;;;1.20;;
63874;SDS011;51595;24.180;-110.296;2023-08-31T05:11:44;2.10;;;1.70;;
63874;SDS011;51595;24.180;-110.296;2023-08-31T05:14:10;1.88;;;1.50;;
63874;SDS011;51595;24.180;-110.296;2023-08-31T05:16:37;2.92;;;1.40;;
63874;SDS011;51595;24.180;-110.296;2023-08-31T05:19:04;2.38;;;1.33;;
63874;SDS011;51595;24.180;-110.296;2023-08-31T05:21:40;2.45;;;1.25;;
63874;SDS011;51595;24.180;-110.296;2023-08-31T05:24:07;1.20;;;1.10;;
63874;SDS011;51595;24.180;-110.296;2023-08-31T05:26:34;2.25;;;1.10;;
63874;SDS011;51595;24.180;-110.296;2023-08-31T05:29:00;1.92;;;1.25;;
63874;SDS011;51595;24.180;-110.296;2023-08-31T05:31:29;1.85;;;1.13;;
63874;SDS011;51595;24.180;-110.296;2023-08-31T05:33:56;4.32;;;1.10;;
63874;SDS011;51595;24.180;-110.296;2023-08-31T05:36:23;1.38;;;1.08;;
63874;SDS011;51595;24.180;-110.296;2023-08-31T05:38:53;0.93;;;0.93;;
63874;SDS011;51595;24.180;-110.296;2023-08-31T05:41:20;3.95;;;1.50;;
63874;SDS011;51595;24.180;-110.296;2023-08-31T05:43:47;1.58;;;1.48;;
63874;SDS011;51595;24.180;-110.296;2023-08-31T05:46:13;1.60;;;1.15;;
63874;SDS011;51595;24.180;-110.296;2023-08-31T05:48:40;1.40;;;1.30;;
63874;SDS011;51595;24.180;-110.296;2023-08-31T05:51:09;2.15;;;1.92;;
63874;SDS011;51595;24.180;-110.296;2023-08-31T05:53:36;2.13;;;1.90;;
63874;SDS011;51595;24.180;-110.296;2023-08-31T05:56:11;3.20;;;2.15;;
63874;SDS011;51595;24.180;-110.296;2023-08-31T05:58:41;1.40;;;1.30;;
63874;SDS011;51595;24.180;-110.296;2023-08-31T06:01:15;1.38;;;1.27;;
63874;SDS011;51595;24.180;-110.296;2023-08-31T06:03:42;1.25;;;1.15;;
63874;SDS011;51595;24.180;-110.296;2023-08-31T06:06:08;1.25;;;1.15;;
63874;SDS011;51595;24.180;-110.296;2023-08-31T06:08:38;1.67;;;0.93;;
63874;SDS011;51595;24.180;-110.296;2023-08-31T06:11:05;2.30;;;1.10;;
63874;SDS011;51595;24.180;-110.296;2023-08-31T06:13:35;0.95;;;0.90;;
63874;SDS011;51595;24.180;-110.296;2023-08-31T06:16:06;1.55;;;1.02;;
63874;SDS011;51595;24.180;-110.296;2023-08-31T06:18:33;1.58;;;1.23;;
63874;SDS011;51595;24.180;-110.296;2023-08-31T06:21:00;1.20;;;1.10;;
63874;SDS011;51595;24.180;-110.296;2023-08-31T06:23:27;0.68;;;0.68;;
63874;SDS011;51595;24.180;-110.296;2023-08-31T06:25:54;1.25;;;0.93;;
63874;SDS011;51595;24.180;-110.296;2023-08-31T06:28:20;1.33;;;0.88;;
63874;SDS011;51595;24.180;-110.296;2023-08-31T06:30:47;0.88;;;0.85;;
63874;SDS011;51595;24.180;-110.296;2023-08-31T06:33:17;2.05;;;1.25;;
63874;SDS011;51595;24.180;-110.296;2023-08-31T06:35:49;1.52;;;1.10;;
63874;SDS011;51595;24.180;-110.296;2023-08-31T06:38:19;1.00;;;0.90;;
63874;SDS011;51595;24.180;-110.296;2023-08-31T06:40:46;1.30;;;1.20;;
63874;SDS011;51595;24.180;-110.296;2023-08-31T06:43:24;1.45;;;1.33;;
63874;SDS011;51595;24.180;-110.296;2023-08-31T06:45:54;1.65;;;1.30;;
63874;SDS011;51595;24.180;-110.296;2023-08-31T06:48:23;1.35;;;1.15;;
63874;SDS011;51595;24.180;-110.296;2023-08-31T06:50:50;4.35;;;1.60;;
63874;SDS011;51595;24.180;-110.296;2023-08-31T06:53:22;1.70;;;1.55;;
63874;SDS011;51595;24.180;-110.296;2023-08-31T06:55:56;2.70;;;1.73;;
63874;SDS011;51595;24.180;-110.296;2023-08-31T06:58:26;2.20;;;1.70;;
63874;SDS011;51595;24.180;-110.296;2023-08-31T07:01:05;2.10;;;1.45;;
63874;SDS011;51595;24.180;-110.296;2023-08-31T07:03:35;3.47;;;1.80;;
63874;SDS011;51595;24.180;-110.296;2023-08-31T07:06:02;1.38;;;1.20;;
63874;SDS011;51595;24.180;-110.296;2023-08-31T07:08:35;3.15;;;1.63;;
63874;SDS011;51595;24.180;-110.296;2023-08-31T07:11:08;2.45;;;1.15;;
63874;SDS011;51595;24.180;-110.296;2023-08-31T07:13:35;3.75;;;1.75;;
63874;SDS011;51595;24.180;-110.296;2023-08-31T07:16:02;1.50;;;1.40;;
63874;SDS011;51595;24.180;-110.296;2023-08-31T07:18:29;3.72;;;2.15;;
63874;SDS011;51595;24.180;-110.296;2023-08-31T07:21:06;2.35;;;1.40;;
63874;SDS011;51595;24.180;-110.296;2023-08-31T07:23:33;1.40;;;1.27;;
63874;SDS011;51595;24.180;-110.296;2023-08-31T07:26:05;6.45;;;1.30;;
63874;SDS011;51595;24.180;-110.296;2023-08-31T07:28:32;4.32;;;1.80;;
63874;SDS011;51595;24.180;-110.296;2023-08-31T07:31:06;3.30;;;1.70;;
63874;SDS011;51595;24.180;-110.296;2023-08-31T07:33:34;1.70;;;1.40;;
63874;SDS011;51595;24.180;-110.296;2023-08-31T07:36:01;2.08;;;1.52;;
63874;SDS011;51595;24.180;-110.296;2023-08-31T07:38:29;1.95;;;1.45;;
63874;SDS011;51595;24.180;-110.296;2023-08-31T07:40:57;2.17;;;1.90;;
63874;SDS011;51595;24.180;-110.296;2023-08-31T07:43:27;2.78;;;1.45;;
63874;SDS011;51595;24.180;-110.296;2023-08-31T07:45:57;2.80;;;1.70;;
63874;SDS011;51595;24.180;-110.296;2023-08-31T07:48:27;3.85;;;1.77;;
63874;SDS011;51595;24.180;-110.296;2023-08-31T07:50:58;2.15;;;1.60;;
63874;SDS011;51595;24.180;-110.296;2023-08-31T07:53:31;2.85;;;1.88;;
63874;SDS011;51595;24.180;-110.296;2023-08-31T07:55:58;1.70;;;1.20;;
63874;SDS011;51595;24.180;-110.296;2023-08-31T07:58:25;1.52;;;1.35;;
63874;SDS011;51595;24.180;-110.296;2023-08-31T08:00:55;1.45;;;1.35;;
63874;SDS011;51595;24.180;-110.296;2023-08-31T08:03:27;2.17;;;1.73;;
63874;SDS011;51595;24.180;-110.296;2023-08-31T08:05:55;1.88;;;1.67;;
63874;SDS011;51595;24.180;-110.296;2023-08-31T08:08:22;2.75;;;1.63;;
63874;SDS011;51595;24.180;-110.296;2023-08-31T08:10:53;2.38;;;1.60;;
63874;SDS011;51595;24.180;-110.296;2023-08-31T08:13:21;1.70;;;1.60;;
63874;SDS011;51595;24.180;-110.296;2023-08-31T08:15:51;2.17;;;1.90;;
63874;SDS011;51595;24.180;-110.296;2023-08-31T08:18:19;4.40;;;1.77;;
63874;SDS011;51595;24.180;-110.296;2023-08-31T08:20:52;1.42;;;1.33;;
63874;SDS011;51595;24.180;-110.296;2023-08-31T08:23:22;2.28;;;1.65;;
63874;SDS011;51595;24.180;-110.296;2023-08-31T08:26:05;1.63;;;1.52;;
63874;SDS011;51595;24.180;-110.296;2023-08-31T08:28:32;1.60;;;1.50;;
63874;SDS011;51595;24.180;-110.296;2023-08-31T08:31:02;2.83;;;1.70;;
63874;SDS011;51595;24.180;-110.296;2023-08-31T08:33:31;1.95;;;1.52;;
63874;SDS011;51595;24.180;-110.296;2023-08-31T08:36:01;1.85;;;1.55;;
63874;SDS011;51595;24.180;-110.296;2023-08-31T08:38:28;1.38;;;1.25;;
63874;SDS011;51595;24.180;-110.296;2023-08-31T08:40:57;1.58;;;1.05;;
63874;SDS011;51595;24.180;-110.296;2023-08-31T08:43:40;2.03;;;1.63;;
63874;SDS011;51595;24.180;-110.296;2023-08-31T08:46:14;2.13;;;1.77;;
63874;SDS011;51595;24.180;-110.296;2023-08-31T08:48:40;1.55;;;1.15;;
63874;SDS011;51595;24.180;-110.296;2023-08-31T08:51:17;6.28;;;1.63;;
63874;SDS011;51595;24.180;-110.296;2023-08-31T08:53:44;2.92;;;1.70;;
63874;SDS011;51595;24.180;-110.296;2023-08-31T08:56:13;1.70;;;1.50;;
63874;SDS011;51595;24.180;-110.296;2023-08-31T08:58:40;3.05;;;1.80;;
63874;SDS011;51595;24.180;-110.296;2023-08-31T09:01:07;2.22;;;2.03;;
63874;SDS011;51595;24.180;-110.296;2023-08-31T09:03:34;3.38;;;1.50;;
63874;SDS011;51595;24.180;-110.296;2023-08-31T09:06:01;3.13;;;1.90;;
63874;SDS011;51595;24.180;-110.296;2023-08-31T09:08:29;2.55;;;1.92;;
63874;SDS011;51595;24.180;-110.296;2023-08-31T09:11:00;3.38;;;1.48;;
63874;SDS011;51595;24.180;-110.296;2023-08-31T09:13:28;2.70;;;1.77;;
63874;SDS011;51595;24.180;-110.296;2023-08-31T09:16:00;3.35;;;1.95;;
63874;SDS011;51595;24.180;-110.296;2023-08-31T09:18:28;1.80;;;1.70;;
63874;SDS011;51595;24.180;-110.296;2023-08-31T09:21:00;2.70;;;1.92;;
63874;SDS011;51595;24.180;-110.296;2023-08-31T09:23:31;2.83;;;1.90;;
63874;SDS011;51595;24.180;-110.296;2023-08-31T09:25:58;4.03;;;2.30;;
63874;SDS011;51595;24.180;-110.296;2023-08-31T09:28:28;1.30;;;1.20;;
63874;SDS011;51595;24.180;-110.296;2023-08-31T09:31:04;2.83;;;2.08;;
63874;SDS011;51595;24.180;-110.296;2023-08-31T09:33:36;2.70;;;2.10;;
63874;SDS011;51595;24.180;-110.296;2023-08-31T09:36:03;2.08;;;1.63;;
63874;SDS011;51595;24.180;-110.296;2023-08-31T09:38:40;2.72;;;2.25;;
63874;SDS011;51595;24.180;-110.296;2023-08-31T09:41:13;8.30;;;1.60;;
63874;SDS011;51595;24.180;-110.296;2023-08-31T09:43:41;2.72;;;1.38;;
63874;SDS011;51595;24.180;-110.296;2023-08-31T09:46:11;2.70;;;1.60;;
63874;SDS011;51595;24.180;-110.296;2023-08-31T09:48:39;2.00;;;1.30;;
63874;SDS011;51595;24.180;-110.296;2023-08-31T09:51:13;2.75;;;1.83;;
63874;SDS011;51595;24.180;-110.296;2023-08-31T09:53:48;2.08;;;1.40;;
63874;SDS011;51595;24.180;-110.296;2023-08-31T09:56:21;2.13;;;1.73;;
63874;SDS011;51595;24.180;-110.296;2023-08-31T09:58:50;2.95;;;1.67;;
63874;SDS011;51595;24.180;-110.296;2023-08-31T10:01:17;4.00;;;1.95;;
63874;SDS011;51595;24.180;-110.296;2023-08-31T10:03:43;2.42;;;1.83;;
63874;SDS011;51595;24.180;-110.296;2023-08-31T10:06:21;3.30;;;1.70;;
63874;SDS011;51595;24.180;-110.296;2023-08-31T10:08:48;2.30;;;1.95;;
63874;SDS011;51595;24.180;-110.296;2023-08-31T10:11:21;5.85;;;1.60;;
63874;SDS011;51595;24.180;-110.296;2023-08-31T10:13:54;2.72;;;1.80;;
63874;SDS011;51595;24.180;-110.296;2023-08-31T10:16:32;3.22;;;1.80;;
63874;SDS011;51595;24.180;-110.296;2023-08-31T10:19:02;2.97;;;1.58;;
63874;SDS011;51595;24.180;-110.296;2023-08-31T10:21:29;1.70;;;1.55;;
63874;SDS011;51595;24.180;-110.296;2023-08-31T10:24:00;2.30;;;1.48;;
63874;SDS011;51595;24.180;-110.296;2023-08-31T10:26:30;1.40;;;1.30;;
63874;SDS011;51595;24.180;-110.296;2023-08-31T10:28:59;1.45;;;1.25;;
63874;SDS011;51595;24.180;-110.296;2023-08-31T10:31:33;1.30;;;1.20;;
63874;SDS011;51595;24.180;-110.296;2023-08-31T10:34:15;2.95;;;2.05;;
63874;SDS011;51595;24.180;-110.296;2023-08-31T10:36:59;2.83;;;1.48;;
63874;SDS011;51595;24.180;-110.296;2023-08-31T10:39:37;1.40;;;1.30;;
63874;SDS011;51595;24.180;-110.296;2023-08-31T10:42:09;1.83;;;1.65;;
63874;SDS011;51595;24.180;-110.296;2023-08-31T10:44:37;1.60;;;1.35;;
63874;SDS011;51595;24.180;-110.296;2023-08-31T10:47:07;2.95;;;1.70;;
63874;SDS011;51595;24.180;-110.296;2023-08-31T10:49:34;2.30;;;1.55;;
63874;SDS011;51595;24.180;-110.296;2023-08-31T10:54:54;1.90;;;1.65;;
63874;SDS011;51595;24.180;-110.296;2023-08-31T10:57:30;2.38;;;1.58;;
63874;SDS011;51595;24.180;-110.296;2023-08-31T10:59:59;4.63;;;1.80;;
63874;SDS011;51595;24.180;-110.296;2023-08-31T11:05:14;3.33;;;1.73;;
63874;SDS011;51595;24.180;-110.296;2023-08-31T11:07:42;2.85;;;1.90;;
63874;SDS011;51595;24.180;-110.296;2023-08-31T11:12:50;4.35;;;2.25;;
63874;SDS011;51595;24.180;-110.296;2023-08-31T11:15:20;3.80;;;2.03;;
63874;SDS011;51595;24.180;-110.296;2023-08-31T11:17:51;2.15;;;1.95;;
63874;SDS011;51595;24.180;-110.296;2023-08-31T11:20:20;2.92;;;2.03;;
63874;SDS011;51595;24.180;-110.296;2023-08-31T11:22:49;2.60;;;2.22;;
63874;SDS011;51595;24.180;-110.296;2023-08-31T11:25:24;3.85;;;2.80;;
63874;SDS011;51595;24.180;-110.296;2023-08-31T11:27:58;3.38;;;2.35;;
63874;SDS011;51595;24.180;-110.296;2023-08-31T11:30:37;3.72;;;2.60;;
63874;SDS011;51595;24.180;-110.296;2023-08-31T11:33:15;3.88;;;2.67;;
63874;SDS011;51595;24.180;-110.296;2023-08-31T11:35:43;3.35;;;2.53;;
63874;SDS011;51595;24.180;-110.296;2023-08-31T11:38:12;3.15;;;2.38;;
63874;SDS011;51595;24.180;-110.296;2023-08-31T11:40:39;3.33;;;2.65;;
63874;SDS011;51595;24.180;-110.296;2023-08-31T11:43:07;3.42;;;2.13;;
63874;SDS011;51595;24.180;-110.296;2023-08-31T11:45:39;3.40;;;2.70;;
63874;SDS011;51595;24.180;-110.296;2023-08-31T11:48:15;4.72;;;2.67;;
63874;SDS011;51595;24.180;-110.296;2023-08-31T11:50:42;3.13;;;2.38;;
63874;SDS011;51595;24.180;-110.296;2023-08-31T11:53:11;4.38;;;3.08;;
63874;SDS011;51595;24.180;-110.296;2023-08-31T11:55:50;4.00;;;2.67;;
63874;SDS011;51595;24.180;-110.296;2023-08-31T11:58:20;4.75;;;2.05;;
63874;SDS011;51595;24.180;-110.296;2023-08-31T12:01:00;3.70;;;2.40;;
63874;SDS011;51595;24.180;-110.296;2023-08-31T12:03:39;2.22;;;1.75;;
63874;SDS011;51595;24.180;-110.296;2023-08-31T12:06:09;2.30;;;1.92;;
63874;SDS011;51595;24.180;-110.296;2023-08-31T12:08:37;1.70;;;1.60;;
63874;SDS011;51595;24.180;-110.296;2023-08-31T12:11:11;2.95;;;2.33;;
63874;SDS011;51595;24.180;-110.296;2023-08-31T12:13:38;4.15;;;2.50;;
63874;SDS011;51595;24.180;-110.296;2023-08-31T12:16:11;2.85;;;2.25;;
63874;SDS011;51595;24.180;-110.296;2023-08-31T12:18:40;2.58;;;2.33;;
63874;SDS011;51595;24.180;-110.296;2023-08-31T12:21:07;3.05;;;2.38;;
63874;SDS011;51595;24.180;-110.296;2023-08-31T12:23:34;2.90;;;2.22;;
63874;SDS011;51595;24.180;-110.296;2023-08-31T12:26:01;2.67;;;2.25;;
63874;SDS011;51595;24.180;-110.296;2023-08-31T12:28:33;3.03;;;2.28;;
63874;SDS011;51595;24.180;-110.296;2023-08-31T12:31:00;4.28;;;3.00;;
63874;SDS011;51595;24.180;-110.296;2023-08-31T12:33:30;2.35;;;2.15;;
63874;SDS011;51595;24.180;-110.296;2023-08-31T12:35:59;3.38;;;2.45;;
63874;SDS011;51595;24.180;-110.296;2023-08-31T12:38:27;3.47;;;2.20;;
63874;SDS011;51595;24.180;-110.296;2023-08-31T12:40:56;4.10;;;2.55;;
63874;SDS011;51595;24.180;-110.296;2023-08-31T12:43:29;4.35;;;2.80;;
63874;SDS011;51595;24.180;-110.296;2023-08-31T12:46:02;4.63;;;2.55;;
63874;SDS011;51595;24.180;-110.296;2023-08-31T12:48:33;3.75;;;2.42;;
63874;SDS011;51595;24.180;-110.296;2023-08-31T12:51:05;3.95;;;2.13;;
63874;SDS011;51595;24.180;-110.296;2023-08-31T12:53:41;4.90;;;1.90;;
63874;SDS011;51595;24.180;-110.296;2023-08-31T12:56:13;3.72;;;2.20;;
63874;SDS011;51595;24.180;-110.296;2023-08-31T12:58:50;1.50;;;1.40;;
63874;SDS011;51595;24.180;-110.296;2023-08-31T13:01:18;2.63;;;2.22;;
63874;SDS011;51595;24.180;-110.296;2023-08-31T13:03:46;2.50;;;1.85;;
63874;SDS011;51595;24.180;-110.296;2023-08-31T13:06:18;2.67;;;2.47;;
63874;SDS011;51595;24.180;-110.296;2023-08-31T13:08:46;3.13;;;2.28;;
63874;SDS011;51595;24.180;-110.296;2023-08-31T13:11:18;2.75;;;2.00;;
63874;SDS011;51595;24.180;-110.296;2023-08-31T13:13:49;2.38;;;2.17;;
63874;SDS011;51595;24.180;-110.296;2023-08-31T13:16:19;2.30;;;1.77;;
63874;SDS011;51595;24.180;-110.296;2023-08-31T13:18:50;2.80;;;2.10;;
63874;SDS011;51595;24.180;-110.296;2023-08-31T13:21:17;1.80;;;1.70;;
63874;SDS011;51595;24.180;-110.296;2023-08-31T13:23:52;3.58;;;2.05;;
63874;SDS011;51595;24.180;-110.296;2023-08-31T13:26:24;2.28;;;1.90;;
63874;SDS011;51595;24.180;-110.296;2023-08-31T13:29:09;1.98;;;1.80;;
63874;SDS011;51595;24.180;-110.296;2023-08-31T13:31:41;1.83;;;1.60;;
63874;SDS011;51595;24.180;-110.296;2023-08-31T13:34:13;2.58;;;2.00;;
63874;SDS011;51595;24.180;-110.296;2023-08-31T13:36:47;2.33;;;1.85;;
63874;SDS011;51595;24.180;-110.296;2023-08-31T13:39:14;3.65;;;1.67;;
63874;SDS011;51595;24.180;-110.296;2023-08-31T13:41:44;2.30;;;1.58;;
63874;SDS011;51595;24.180;-110.296;2023-08-31T13:44:12;3.85;;;1.60;;
63874;SDS011;51595;24.180;-110.296;2023-08-31T13:46:54;3.33;;;1.80;;
63874;SDS011;51595;24.180;-110.296;2023-08-31T13:49:21;2.10;;;1.50;;
63874;SDS011;51595;24.180;-110.296;2023-08-31T13:51:48;3.33;;;1.98;;
63874;SDS011;51595;24.180;-110.296;2023-08-31T13:54:16;3.95;;;2.00;;
63874;SDS011;51595;24.180;-110.296;2023-08-31T13:56:46;2.13;;;1.92;;
63874;SDS011;51595;24.180;-110.296;2023-08-31T13:59:17;4.80;;;2.30;;
63874;SDS011;51595;24.180;-110.296;2023-08-31T14:01:44;2.35;;;2.15;;
63874;SDS011;51595;24.180;-110.296;2023-08-31T14:04:14;2.92;;;2.22;;
63874;SDS011;51595;24.180;-110.296;2023-08-31T14:06:42;3.00;;;2.15;;
63874;SDS011;51595;24.180;-110.296;2023-08-31T14:09:29;1.77;;;1.38;;
63874;SDS011;51595;24.180;-110.296;2023-08-31T14:11:57;2.33;;;2.00;;
63874;SDS011;51595;24.180;-110.296;2023-08-31T14:14:27;4.32;;;1.95;;
63874;SDS011;51595;24.180;-110.296;2023-08-31T14:16:57;3.00;;;1.95;;
63874;SDS011;51595;24.180;-110.296;2023-08-31T14:19:24;3.00;;;2.17;;
63874;SDS011;51595;24.180;-110.296;2023-08-31T14:21:55;5.18;;;2.08;;
63874;SDS011;51595;24.180;-110.296;2023-08-31T14:24:28;2.85;;;2.10;;
63874;SDS011;51595;24.180;-110.296;2023-08-31T14:26:55;3.80;;;2.20;;
63874;SDS011;51595;24.180;-110.296;2023-08-31T14:29:46;4.53;;;1.88;;
63874;SDS011;51595;24.180;-110.296;2023-08-31T14:32:16;2.40;;;1.95;;
63874;SDS011;51595;24.180;-110.296;2023-08-31T14:34:43;3.58;;;2.20;;
63874;SDS011;51595;24.180;-110.296;2023-08-31T14:37:17;2.63;;;2.30;;
63874;SDS011;51595;24.180;-110.296;2023-08-31T14:39:44;4.05;;;2.35;;
63874;SDS011;51595;24.180;-110.296;2023-08-31T14:42:11;2.63;;;2.28;;
63874;SDS011;51595;24.180;-110.296;2023-08-31T14:44:40;5.28;;;2.60;;
63874;SDS011;51595;24.180;-110.296;2023-08-31T14:47:09;5.75;;;2.75;;
63874;SDS011;51595;24.180;-110.296;2023-08-31T14:49:39;3.90;;;2.42;;
63874;SDS011;51595;24.180;-110.296;2023-08-31T14:52:12;3.13;;;2.60;;
63874;SDS011;51595;24.180;-110.296;2023-08-31T14:54:42;3.42;;;2.25;;
63874;SDS011;51595;24.180;-110.296;2023-08-31T14:57:10;3.25;;;2.50;;
63874;SDS011;51595;24.180;-110.296;2023-08-31T14:59:41;2.45;;;2.03;;
63874;SDS011;51595;24.180;-110.296;2023-08-31T15:02:15;2.78;;;2.42;;
63874;SDS011;51595;24.180;-110.296;2023-08-31T15:04:47;2.53;;;2.25;;